Time;durP1;ratioP1;P1;durP2;ratioP2;P2;SDS_P1;SDS_P2;PMS_P1;PMS_P2;Temp;Humidity;BMP_temperature;BMP_pressure;BME280_temperature;BME280_humidity;BME280_pressure;Samples;Min_cycle;Max_cycle;Signal;HPM_P1;HPM_P2
2024/01/21 00:02:14;;;;;;;44.58;24.10;;;0.90;2201.60;;;;;;5068840;28;20478;-78
2024/01/21 00:04:42;;;;;;;34.90;19.60;;;25.60;2201.60;;;;;;5079951;28;20624;-80
2024/01/21 00:07:08;;;;;;;39.45;21.38;;;25.70;2201.60;;;;;;5082647;28;20039;-79
2024/01/21 00:09:34;;;;;;;60.25;35.03;;;25.70;2201.60;;;;;;5087376;28;20040;-79
2024/01/21 00:12:00;;;;;;;61.28;39.72;;;25.60;2201.60;;;;;;5082764;28;20029;-79
2024/01/21 00:14:27;;;;;;;37.15;23.08;;;25.60;2201.60;;;;;;5076197;28;20024;-78
2024/01/21 00:16:52;;;;;;;54.13;35.05;;;0.80;2201.60;;;;;;5070024;28;20021;-77
2024/01/21 00:19:18;;;;;;;53.05;30.45;;;25.70;2201.60;;;;;;5067954;28;20112;-78
2024/01/21 00:21:44;;;;;;;43.95;25.05;;;25.80;2201.60;;;;;;5069379;28;20043;-78
2024/01/21 00:24:10;;;;;;;48.28;28.50;;;25.80;2201.60;;;;;;5088504;28;20020;-80
2024/01/21 00:26:35;;;;;;;84.60;44.88;;;25.70;2201.60;;;;;;5087469;28;20024;-78
2024/01/21 00:29:02;;;;;;;52.58;28.05;;;25.70;2201.60;;;;;;5068510;28;20104;-78
2024/01/21 00:31:28;;;;;;;54.35;32.60;;;0.70;2201.60;;;;;;5067534;28;20136;-78
2024/01/21 00:33:54;;;;;;;105.10;68.30;;;0.70;2201.60;;;;;;5088156;28;20107;-77
2024/01/21 00:36:20;;;;;;;51.65;31.20;;;0.70;2201.60;;;;;;5091028;28;20094;-78
2024/01/21 00:38:45;;;;;;;64.22;40.45;;;0.90;2201.60;;;;;;5091861;28;20047;-77
2024/01/21 00:41:17;;;;;;;34.22;19.85;;;0.80;2201.60;;;;;;5091784;28;20030;-79
2024/01/21 00:43:43;;;;;;;33.65;18.17;;;25.60;2201.60;;;;;;5081905;28;20066;-79
2024/01/21 00:46:09;;;;;;;28.58;17.98;;;0.90;2201.60;;;;;;5087004;28;20508;-78
2024/01/21 00:48:34;;;;;;;38.05;21.75;;;25.60;2201.60;;;;;;5091358;28;20496;-78
2024/01/21 00:51:01;;;;;;;27.40;17.83;;;25.60;2201.60;;;;;;5078239;28;20036;-78
2024/01/21 00:53:26;;;;;;;26.88;15.80;;;25.60;2201.60;;;;;;5091554;28;20024;-78
2024/01/21 00:55:52;;;;;;;32.13;20.70;;;25.60;2201.60;;;;;;5074711;28;20032;-81
2024/01/21 00:58:18;;;;;;;34.13;20.35;;;25.60;2201.60;;;;;;5081558;28;20489;-78
2024/01/21 01:00:44;;;;;;;35.42;18.65;;;0.90;2201.60;;;;;;5077112;28;20474;-78
2024/01/21 01:03:10;;;;;;;26.92;16.65;;;0.80;2201.60;;;;;;5091293;28;20036;-79
2024/01/21 01:05:36;;;;;;;33.13;19.40;;;0.80;2201.60;;;;;;5089740;28;20093;-78
2024/01/21 01:08:02;;;;;;;34.33;19.30;;;0.70;2201.60;;;;;;5091359;28;20452;-78
2024/01/21 01:10:28;;;;;;;34.97;18.67;;;0.70;2201.60;;;;;;5089649;28;20028;-78
2024/01/21 01:12:54;;;;;;;35.55;20.35;;;0.60;2201.60;;;;;;5091303;28;20377;-78
2024/01/21 01:15:20;;;;;;;33.88;22.65;;;0.50;2201.60;;;;;;5089786;28;20028;-78
2024/01/21 01:17:47;;;;;;;39.88;27.45;;;0.40;2201.60;;;;;;5080561;28;20464;-78
2024/01/21 01:20:13;;;;;;;48.83;28.75;;;0.60;2201.60;;;;;;5069708;28;20079;-78
2024/01/21 01:22:39;;;;;;;30.90;20.75;;;0.70;2201.60;;;;;;5081637;28;20148;-80
2024/01/21 01:25:05;;;;;;;26.65;15.15;;;0.40;2201.60;;;;;;5073760;28;20016;-79
2024/01/21 01:27:31;;;;;;;26.83;17.33;;;0.10;2201.60;;;;;;5080072;28;20036;-78
2024/01/21 01:29:57;;;;;;;28.92;18.85;;;0.20;2201.60;;;;;;5073912;28;20102;-79
2024/01/21 01:32:23;;;;;;;22.60;13.55;;;0.00;2201.60;;;;;;5070772;28;20626;-78
2024/01/21 01:34:49;;;;;;;27.45;18.67;;;0.00;2201.60;;;;;;5087574;28;20106;-77
2024/01/21 01:37:15;;;;;;;44.10;29.35;;;0.00;2201.60;;;;;;5090689;28;20470;-78
2024/01/21 01:39:41;;;;;;;34.17;18.25;;;12.90;2201.60;;;;;;5073544;28;20045;-78
2024/01/21 01:42:07;;;;;;;31.10;17.83;;;13.00;2201.60;;;;;;5070556;28;20040;-78
2024/01/21 01:44:33;;;;;;;34.58;19.48;;;12.90;2201.60;;;;;;5087726;28;20012;-76
2024/01/21 01:46:59;;;;;;;27.85;15.95;;;13.20;2201.60;;;;;;5090976;28;20035;-78
2024/01/21 01:49:26;;;;;;;34.08;19.17;;;13.40;2201.60;;;;;;5084686;28;20505;-78
2024/01/21 01:51:53;;;;;;;35.60;18.67;;;13.40;2201.60;;;;;;5069194;28;20025;-77
2024/01/21 01:54:23;;;;;;;32.05;16.02;;;13.40;2201.60;;;;;;5088247;28;20087;-78
2024/01/21 01:56:49;;;;;;;24.40;15.40;;;13.60;2201.60;;;;;;5088716;28;20035;-78
2024/01/21 01:59:18;;;;;;;29.10;17.50;;;38.40;2201.60;;;;;;5088809;28;20099;-78
2024/01/21 02:01:44;;;;;;;36.45;20.73;;;38.50;2201.60;;;;;;5078763;28;20487;-77
2024/01/21 02:04:11;;;;;;;47.05;25.25;;;38.50;2201.60;;;;;;5073244;28;20131;-79
2024/01/21 02:06:38;;;;;;;51.67;27.85;;;13.70;2201.60;;;;;;5090227;28;20044;-78
2024/01/21 02:09:05;;;;;;;40.40;25.42;;;38.40;2201.60;;;;;;5089713;28;20458;-80
2024/01/21 02:11:31;;;;;;;47.88;25.58;;;38.70;2201.60;;;;;;5078074;28;20412;-78
2024/01/21 02:13:57;;;;;;;47.67;25.10;;;38.70;2201.60;;;;;;5085146;28;20030;-78
2024/01/21 02:16:23;;;;;;;88.35;54.45;;;38.70;2201.60;;;;;;5070023;28;20907;-77
2024/01/21 02:18:50;;;;;;;54.22;30.30;;;38.60;2201.60;;;;;;5082103;28;20032;-79
2024/01/21 02:21:17;;;;;;;41.60;27.02;;;38.50;2201.60;;;;;;5081883;28;20024;-78
2024/01/21 02:23:45;;;;;;;46.20;28.58;;;38.50;2201.60;;;;;;5089822;28;20024;-76
2024/01/21 02:26:11;;;;;;;46.45;26.35;;;38.40;2201.60;;;;;;5083150;28;20389;-76
2024/01/21 02:28:37;;;;;;;48.35;27.65;;;38.40;2201.60;;;;;;5088940;28;20110;-77
2024/01/21 02:31:03;;;;;;;36.88;22.52;;;38.50;2201.60;;;;;;5089626;28;20411;-77
2024/01/21 02:33:29;;;;;;;58.78;33.55;;;38.80;2201.60;;;;;;5089604;28;20397;-77
2024/01/21 02:35:54;;;;;;;35.30;20.60;;;38.90;2201.60;;;;;;5089397;28;20028;-76
2024/01/21 02:38:20;;;;;;;45.20;24.40;;;39.00;2201.60;;;;;;5076819;28;20032;-77
2024/01/21 02:40:46;;;;;;;48.92;27.00;;;39.10;2201.60;;;;;;5084542;28;20032;-77
2024/01/21 02:43:12;;;;;;;35.83;19.98;;;39.00;2201.60;;;;;;5081158;28;20062;-77
2024/01/21 02:45:37;;;;;;;35.38;22.63;;;38.90;2201.60;;;;;;5089372;28;20027;-77
2024/01/21 02:48:03;;;;;;;35.78;19.85;;;38.70;2201.60;;;;;;5088210;28;20111;-78
2024/01/21 02:50:29;;;;;;;66.82;34.42;;;38.70;2201.60;;;;;;5082962;28;20449;-76
2024/01/21 02:52:55;;;;;;;52.58;27.30;;;38.70;2201.60;;;;;;5082097;28;20150;-77
2024/01/21 02:55:21;;;;;;;62.63;31.88;;;38.70;2201.60;;;;;;5089299;28;20047;-77
2024/01/21 02:57:46;;;;;;;53.40;28.17;;;38.80;2201.60;;;;;;5073603;28;20470;-76
2024/01/21 03:00:13;;;;;;;73.25;38.35;;;38.90;2201.60;;;;;;5075451;28;20487;-77
2024/01/21 03:02:38;;;;;;;66.28;36.28;;;39.00;2201.60;;;;;;5088132;28;20731;-76
2024/01/21 03:05:05;;;;;;;32.42;19.35;;;39.00;2201.60;;;;;;5088972;28;20116;-81
2024/01/21 03:07:30;;;;;;;38.47;21.15;;;39.00;2201.60;;;;;;5089328;28;20016;-77
2024/01/21 03:09:56;;;;;;;122.75;61.10;;;39.00;2201.60;;;;;;5088935;28;20104;-78
2024/01/21 03:12:22;;;;;;;134.20;65.97;;;39.20;2201.60;;;;;;5089078;28;20016;-76
2024/01/21 03:14:47;;;;;;;145.50;62.45;;;39.20;2201.60;;;;;;5076477;28;20028;-76
2024/01/21 03:17:13;;;;;;;38.85;22.30;;;39.10;2201.60;;;;;;5087903;28;20043;-81
2024/01/21 03:19:39;;;;;;;165.77;70.15;;;39.00;2201.60;;;;;;5087415;28;20028;-78
2024/01/21 03:22:05;;;;;;;237.63;102.75;;;39.20;2201.60;;;;;;5087750;28;20032;-77
2024/01/21 03:24:31;;;;;;;32.67;20.70;;;39.10;2201.60;;;;;;5077217;28;20021;-78
2024/01/21 03:26:57;;;;;;;34.25;17.65;;;39.10;2201.60;;;;;;5072982;28;20062;-77
2024/01/21 03:29:24;;;;;;;25.60;18.45;;;64.00;2201.60;;;;;;5087794;28;20036;-78
2024/01/21 03:31:49;;;;;;;32.35;20.55;;;39.30;2201.60;;;;;;5087387;28;20081;-78
2024/01/21 03:34:15;;;;;;;33.08;19.13;;;39.30;2201.60;;;;;;5088731;28;20036;-77
2024/01/21 03:36:41;;;;;;;34.10;20.98;;;64.10;2201.60;;;;;;5089039;28;20024;-77
2024/01/21 03:39:07;;;;;;;33.03;18.10;;;64.00;2201.60;;;;;;5088981;28;20107;-79
2024/01/21 03:41:33;;;;;;;47.15;23.20;;;39.30;2201.60;;;;;;5087685;28;20541;-78
2024/01/21 03:43:59;;;;;;;76.78;41.85;;;39.30;2201.60;;;;;;5075993;28;20056;-78
2024/01/21 03:46:25;;;;;;;76.18;43.72;;;64.00;2201.60;;;;;;5073072;28;20039;-78
2024/01/21 03:48:50;;;;;;;53.33;29.05;;;64.10;2201.60;;;;;;5088882;28;20473;-78
2024/01/21 03:51:16;;;;;;;140.38;76.00;;;64.20;2201.60;;;;;;5088556;28;20043;-78
2024/01/21 03:53:42;;;;;;;101.47;60.10;;;64.00;2201.60;;;;;;5074705;28;20070;-78
2024/01/21 03:56:08;;;;;;;57.85;32.00;;;64.10;2201.60;;;;;;5087621;28;20020;-78
2024/01/21 03:58:34;;;;;;;39.80;23.00;;;64.10;2201.60;;;;;;5087508;28;20447;-80
2024/01/21 04:01:03;;;;;;;35.22;18.33;;;64.00;2201.60;;;;;;5067878;28;20039;-78
2024/01/21 04:03:29;;;;;;;27.85;16.02;;;64.00;2201.60;;;;;;5066771;28;20046;-78
2024/01/21 04:05:54;;;;;;;32.20;17.80;;;64.10;2201.60;;;;;;5081985;28;20025;-81
2024/01/21 04:08:21;;;;;;;23.92;15.40;;;64.10;2201.60;;;;;;5084343;28;20107;-77
2024/01/21 04:10:47;;;;;;;43.47;22.65;;;64.10;2201.60;;;;;;5085300;28;20033;-77
2024/01/21 04:13:13;;;;;;;25.40;14.05;;;64.20;2201.60;;;;;;5070760;28;20029;-78
2024/01/21 04:15:38;;;;;;;24.33;13.82;;;64.40;2201.60;;;;;;5090006;28;20161;-78
2024/01/21 04:18:04;;;;;;;25.45;15.43;;;64.30;2201.60;;;;;;5092314;28;20157;-80
2024/01/21 04:20:30;;;;;;;27.75;14.60;;;64.40;2201.60;;;;;;5092325;28;20112;-77
2024/01/21 04:22:56;;;;;;;29.17;15.20;;;64.40;2201.60;;;;;;5079578;28;20032;-78
2024/01/21 04:25:21;;;;;;;25.13;13.27;;;64.60;2201.60;;;;;;5089958;28;20026;-78
2024/01/21 04:27:47;;;;;;;30.42;15.70;;;64.50;2201.60;;;;;;5092130;28;20067;-78
2024/01/21 04:30:13;;;;;;;27.58;14.90;;;64.50;2201.60;;;;;;5084632;28;20072;-77
2024/01/21 04:32:39;;;;;;;30.30;17.00;;;64.50;2201.60;;;;;;5071697;28;20470;-79
2024/01/21 04:35:06;;;;;;;27.92;16.45;;;64.60;2201.60;;;;;;5085313;28;20036;-77
2024/01/21 04:37:31;;;;;;;28.60;16.48;;;64.70;2201.60;;;;;;5071878;28;20063;-77
2024/01/21 04:39:58;;;;;;;26.70;17.08;;;64.80;2201.60;;;;;;5091333;28;20398;-77
2024/01/21 04:42:24;;;;;;;21.25;13.25;;;64.90;2201.60;;;;;;5092177;28;20035;-77
2024/01/21 04:44:49;;;;;;;24.13;13.85;;;90.20;2176.00;;;;;;5091827;28;20616;-77
2024/01/21 04:47:15;;;;;;;21.80;13.82;;;115.40;2176.00;;;;;;5091716;28;20056;-79
2024/01/21 04:49:41;;;;;;;18.17;11.38;;;115.70;2176.00;;;;;;5091598;28;20123;-77
2024/01/21 04:52:06;;;;;;;21.52;14.27;;;115.60;2176.00;;;;;;5091879;28;20020;-78
2024/01/21 04:54:32;;;;;;;18.27;10.88;;;115.40;2176.00;;;;;;5076162;28;20541;-78
2024/01/21 04:56:58;;;;;;;19.58;11.60;;;115.30;2176.00;;;;;;5090057;28;20051;-78
2024/01/21 04:59:24;;;;;;;17.55;10.27;;;115.20;2176.00;;;;;;5090239;28;20016;-79
2024/01/21 05:01:50;;;;;;;19.40;10.55;;;90.50;2176.00;;;;;;5090196;28;20504;-79
2024/01/21 05:04:16;;;;;;;28.13;14.52;;;90.40;2176.00;;;;;;5083699;28;20127;-78
2024/01/21 05:06:41;;;;;;;29.38;17.92;;;90.20;2176.00;;;;;;5084056;28;20414;-79
2024/01/21 05:09:07;;;;;;;24.52;11.85;;;90.00;2176.00;;;;;;5091209;28;20367;-78
2024/01/21 05:11:33;;;;;;;30.05;16.88;;;89.90;2176.00;;;;;;5091620;28;20111;-78
2024/01/21 05:13:58;;;;;;;33.08;18.02;;;90.00;2176.00;;;;;;5071804;28;20470;-78
2024/01/21 05:16:24;;;;;;;27.23;15.88;;;90.20;2176.00;;;;;;5081949;28;20515;-79
2024/01/21 05:18:52;;;;;;;34.20;18.38;;;90.20;2176.00;;;;;;5070733;28;20035;-78
2024/01/21 05:21:22;;;;;;;33.72;17.48;;;90.20;2176.00;;;;;;5070139;28;20370;-77
2024/01/21 05:23:50;;;;;;;23.30;14.00;;;90.50;2176.00;;;;;;5070755;28;20109;-78
2024/01/21 05:26:16;;;;;;;25.52;14.30;;;90.50;2176.00;;;;;;5070841;28;20017;-78
2024/01/21 05:28:42;;;;;;;21.38;13.13;;;115.30;2176.00;;;;;;5077534;28;20447;-78
2024/01/21 05:31:08;;;;;;;27.08;12.73;;;115.20;2176.00;;;;;;5089611;28;20067;-79
2024/01/21 05:33:38;;;;;;;16.85;10.95;;;115.20;2176.00;;;;;;5070523;28;20024;-79
2024/01/21 05:36:04;;;;;;;17.45;10.25;;;90.30;2176.00;;;;;;5069332;28;20486;-78
2024/01/21 05:38:30;;;;;;;21.65;12.15;;;90.50;2176.00;;;;;;5076655;28;20355;-78
2024/01/21 05:40:55;;;;;;;25.48;15.73;;;115.20;2176.00;;;;;;5076673;28;20131;-77
2024/01/21 05:43:21;;;;;;;23.13;12.65;;;115.20;2176.00;;;;;;5070682;28;20360;-79
2024/01/21 05:45:47;;;;;;;19.48;11.90;;;115.40;2176.00;;;;;;5068974;28;20120;-79
2024/01/21 05:48:13;;;;;;;19.45;10.68;;;115.50;2176.00;;;;;;5077488;28;20051;-78
2024/01/21 05:50:38;;;;;;;25.65;13.25;;;115.30;2176.00;;;;;;5088903;28;20048;-78
2024/01/21 05:53:05;;;;;;;27.75;12.05;;;90.50;2176.00;;;;;;5090427;28;20021;-79
2024/01/21 05:55:32;;;;;;;25.20;11.52;;;90.50;2176.00;;;;;;5090653;28;20376;-78
2024/01/21 05:57:58;;;;;;;23.52;14.75;;;90.40;2176.00;;;;;;5082673;28;20017;-79
2024/01/21 06:00:24;;;;;;;20.95;12.82;;;90.40;2176.00;;;;;;5084580;28;20035;-78
2024/01/21 06:02:51;;;;;;;23.33;12.27;;;90.50;2176.00;;;;;;5090079;28;20109;-77
2024/01/21 06:05:17;;;;;;;24.88;11.98;;;90.50;2176.00;;;;;;5089907;28;20603;-77
2024/01/21 06:07:44;;;;;;;23.65;12.57;;;90.50;2176.00;;;;;;5090447;28;20054;-78
2024/01/21 06:10:10;;;;;;;20.10;12.32;;;90.20;2176.00;;;;;;5089202;28;20122;-78
2024/01/21 06:12:37;;;;;;;23.02;13.13;;;90.40;2176.00;;;;;;5069890;28;20015;-79
2024/01/21 06:15:03;;;;;;;27.15;14.63;;;115.20;2176.00;;;;;;5070203;28;20470;-77
2024/01/21 06:17:29;;;;;;;24.15;12.32;;;115.20;2176.00;;;;;;5069983;28;20052;-77
2024/01/21 06:19:55;;;;;;;29.83;14.32;;;115.20;2176.00;;;;;;5069413;28;20439;-80
2024/01/21 06:22:20;;;;;;;24.98;13.05;;;90.30;2176.00;;;;;;5084664;28;20028;-78
2024/01/21 06:24:46;;;;;;;55.15;25.27;;;90.40;2176.00;;;;;;5080202;28;20024;-79
2024/01/21 06:27:12;;;;;;;35.88;17.02;;;90.30;2176.00;;;;;;5084099;28;20389;-79
2024/01/21 06:29:39;;;;;;;33.83;17.15;;;90.30;2176.00;;;;;;5083841;28;20032;-77
2024/01/21 06:32:05;;;;;;;34.25;16.15;;;90.10;2176.00;;;;;;5077159;28;20024;-77
2024/01/21 06:34:30;;;;;;;26.27;15.52;;;90.00;2176.00;;;;;;5085338;28;20024;-78
2024/01/21 06:36:56;;;;;;;31.65;15.70;;;89.80;2176.00;;;;;;5085464;28;20469;-75
2024/01/21 06:39:22;;;;;;;39.75;19.52;;;89.80;2176.00;;;;;;5082953;28;20405;-79
2024/01/21 06:41:48;;;;;;;43.65;24.25;;;89.90;2176.00;;;;;;5086114;28;20070;-78
2024/01/21 06:44:14;;;;;;;40.88;20.33;;;89.70;2176.00;;;;;;5074470;28;20012;-78
2024/01/21 06:46:40;;;;;;;28.58;14.60;;;89.70;2176.00;;;;;;5077547;28;20020;-77
2024/01/21 06:49:06;;;;;;;29.38;14.65;;;89.80;2176.00;;;;;;5086762;28;20024;-78
2024/01/21 06:51:34;;;;;;;23.75;14.45;;;89.80;2176.00;;;;;;5088880;28;20434;-80
2024/01/21 06:54:00;;;;;;;28.92;14.10;;;89.70;2176.00;;;;;;5084273;28;20031;-77
2024/01/21 06:56:26;;;;;;;179.55;94.07;;;89.80;2176.00;;;;;;5087924;28;20035;-75
2024/01/21 06:58:53;;;;;;;35.03;19.38;;;89.90;2176.00;;;;;;5082982;28;20382;-82
2024/01/21 07:01:19;;;;;;;98.45;62.58;;;89.70;2176.00;;;;;;5080867;28;20051;-78
2024/01/21 07:03:45;;;;;;;40.75;23.13;;;89.60;2201.60;;;;;;5069206;28;20045;-78
2024/01/21 07:06:11;;;;;;;115.50;59.08;;;89.60;2201.60;;;;;;5069367;28;20033;-79
2024/01/21 07:08:40;;;;;;;143.25;77.00;;;64.80;2201.60;;;;;;5073766;28;20374;-77
2024/01/21 07:11:09;;;;;;;71.32;36.55;;;64.60;2201.60;;;;;;5089133;28;20038;-81
2024/01/21 07:13:35;;;;;;;100.30;55.58;;;64.50;2201.60;;;;;;5087951;28;20146;-78
2024/01/21 07:16:02;;;;;;;134.73;68.15;;;64.50;2201.60;;;;;;5089303;28;20043;-85
2024/01/21 07:18:27;;;;;;;54.80;26.15;;;64.50;2201.60;;;;;;5078585;28;20024;-81
2024/01/21 07:20:53;;;;;;;36.65;20.20;;;64.40;2201.60;;;;;;5078099;28;20051;-86
2024/01/21 07:23:19;;;;;;;56.03;28.73;;;64.50;2201.60;;;;;;5073381;28;20059;-82
2024/01/21 07:25:46;;;;;;;65.43;40.55;;;64.50;2201.60;;;;;;5085923;28;20032;-81
2024/01/21 07:28:12;;;;;;;33.38;19.50;;;64.40;2201.60;;;;;;5084936;28;20032;-86
2024/01/21 07:30:38;;;;;;;37.92;20.95;;;64.20;2201.60;;;;;;5075677;28;20051;-87
2024/01/21 07:33:04;;;;;;;28.67;18.17;;;64.20;2201.60;;;;;;5084171;28;20020;-75
2024/01/21 07:35:30;;;;;;;30.25;16.98;;;64.30;2201.60;;;;;;5086341;28;20032;-82
2024/01/21 07:37:55;;;;;;;31.05;16.98;;;64.40;2201.60;;;;;;5069176;28;20091;-84
2024/01/21 07:40:22;;;;;;;32.10;20.90;;;64.40;2201.60;;;;;;5082402;28;20108;-86
2024/01/21 07:42:48;;;;;;;50.33;31.95;;;64.60;2201.60;;;;;;5075897;28;20028;-77
2024/01/21 07:45:13;;;;;;;49.38;28.67;;;64.40;2201.60;;;;;;5082068;28;20423;-85
2024/01/21 07:47:39;;;;;;;45.97;29.38;;;64.10;2201.60;;;;;;5079545;28;20034;-90
2024/01/21 07:50:06;;;;;;;41.10;23.58;;;64.10;2201.60;;;;;;5076721;28;20127;-86
2024/01/21 07:52:32;;;;;;;69.97;43.60;;;64.00;2201.60;;;;;;5083547;28;20028;-86
2024/01/21 07:54:58;;;;;;;64.63;41.22;;;39.30;2201.60;;;;;;5093546;28;20036;-86
2024/01/21 07:57:24;;;;;;;68.40;39.05;;;39.20;2201.60;;;;;;5093000;28;20031;-75
2024/01/21 07:59:50;;;;;;;72.65;41.25;;;39.10;2201.60;;;;;;5088005;28;20020;-86
2024/01/21 08:02:16;;;;;;;36.35;22.42;;;38.90;2201.60;;;;;;5074004;28;20031;-88
2024/01/21 08:04:42;;;;;;;32.15;17.30;;;38.60;2201.60;;;;;;5084070;28;20043;-81
2024/01/21 08:07:08;;;;;;;23.70;14.95;;;13.30;2201.60;;;;;;5085823;28;20093;-81
2024/01/21 08:09:34;;;;;;;26.85;17.25;;;25.60;2201.60;;;;;;5072255;28;20052;-76
2024/01/21 08:12:00;;;;;;;35.13;21.75;;;51.30;2227.20;;;;;;5089297;28;20111;-80
2024/01/21 08:14:26;;;;;;;32.42;23.52;;;51.90;2227.20;;;;;;5082682;28;20466;-81
2024/01/21 08:16:52;;;;;;;38.60;25.90;;;77.60;2227.20;;;;;;5089037;28;20516;-84
2024/01/21 08:19:19;;;;;;;128.27;94.95;;;103.20;2227.20;;;;;;5092120;28;20043;-82
2024/01/21 08:21:49;;;;;;;75.65;56.28;;;103.10;2227.20;;;;;;5092260;28;20008;-80
2024/01/21 08:24:15;;;;;;;65.80;44.92;;;128.90;2252.80;;;;;;5092369;28;20032;-83
2024/01/21 08:26:41;;;;;;;69.50;51.70;;;179.30;2124.80;;;;;;5087635;28;20036;-82
2024/01/21 08:29:07;;;;;;;47.08;33.20;;;205.40;1996.80;;;;;;5082328;28;20107;-79
2024/01/21 08:31:32;;;;;;;57.90;43.03;;;205.70;1945.60;;;;;;5092167;28;20034;-77
2024/01/21 08:33:58;;;;;;;35.88;28.27;;;256.40;1792.00;;;;;;5091596;28;20028;-78
2024/01/21 08:36:24;;;;;;;50.05;38.67;;;256.70;1740.80;;;;;;5074987;28;20031;-79
2024/01/21 08:38:51;;;;;;;64.75;53.58;;;281.80;1740.80;;;;;;5077565;28;20028;-80
2024/01/21 08:41:16;;;;;;;64.32;49.97;;;307.60;1689.60;;;;;;5080084;28;20169;-78
2024/01/21 08:43:42;;;;;;;49.90;40.10;;;307.90;1664.00;;;;;;5091521;28;20099;-78
2024/01/21 08:46:11;;;;;;;37.22;32.65;;;308.10;1612.80;;;;;;5077403;28;20036;-78
2024/01/21 08:48:37;;;;;;;41.78;37.20;;;308.10;1612.80;;;;;;5085002;28;20024;-77
2024/01/21 08:51:02;;;;;;;56.30;47.75;;;307.30;1638.40;;;;;;5084752;28;20032;-77
2024/01/21 08:53:28;;;;;;;37.22;29.38;;;256.20;1689.60;;;;;;5090439;28;20026;-77
2024/01/21 08:55:54;;;;;;;35.15;27.83;;;230.70;1766.40;;;;;;5077031;28;20497;-78
2024/01/21 08:58:20;;;;;;;37.85;28.55;;;256.50;1715.20;;;;;;5086016;28;20111;-85
2024/01/21 09:00:46;;;;;;;41.97;34.85;;;307.30;1664.00;;;;;;5091344;28;20028;-78
2024/01/21 09:03:12;;;;;;;56.55;48.17;;;307.80;1612.80;;;;;;5089763;28;20044;-76
2024/01/21 09:05:38;;;;;;;178.07;138.35;;;333.20;1612.80;;;;;;5091239;28;20031;-77
2024/01/21 09:08:04;;;;;;;193.90;161.73;;;333.30;1612.80;;;;;;5091397;28;20385;-78
2024/01/21 09:10:30;;;;;;;253.50;208.52;;;359.30;1510.40;;;;;;5076510;28;20497;-81
2024/01/21 09:12:56;;;;;;;231.55;194.65;;;384.20;1484.80;;;;;;5090719;28;20107;-77
2024/01/21 09:15:22;;;;;;;195.00;165.45;;;384.30;1484.80;;;;;;5090916;28;20028;-78
2024/01/21 09:17:49;;;;;;;146.95;130.50;;;384.50;1459.20;;;;;;5090953;28;20065;-78
2024/01/21 09:20:15;;;;;;;112.00;98.43;;;358.60;1536.00;;;;;;5091064;28;20020;-78
2024/01/21 09:22:41;;;;;;;137.00;118.57;;;333.40;1561.60;;;;;;5091187;28;20462;-78
2024/01/21 09:25:07;;;;;;;154.55;130.55;;;333.10;1587.20;;;;;;5091102;28;20020;-78
2024/01/21 09:27:32;;;;;;;188.77;158.90;;;307.40;1612.80;;;;;;5076164;28;20043;-78
2024/01/21 09:29:58;;;;;;;219.00;181.90;;;332.90;1612.80;;;;;;5089467;28;20032;-78
2024/01/21 09:32:25;;;;;;;348.17;280.65;;;358.40;1536.00;;;;;;5091044;28;20028;-80
2024/01/21 09:34:50;;;;;;;287.02;241.95;;;359.30;1484.80;;;;;;5090000;28;20040;-79
2024/01/21 09:37:16;;;;;;;294.75;258.73;;;384.50;1459.20;;;;;;5090754;28;20170;-78
2024/01/21 09:39:42;;;;;;;261.45;229.63;;;384.00;1484.80;;;;;;5091425;28;20020;-76
2024/01/21 09:42:08;;;;;;;200.07;177.25;;;358.60;1510.40;;;;;;5080324;28;20123;-79
2024/01/21 09:44:34;;;;;;;215.15;190.52;;;333.50;1561.60;;;;;;5087796;28;20363;-78
2024/01/21 09:47:01;;;;;;;194.40;173.38;;;332.80;1612.80;;;;;;5080650;28;20016;-79
2024/01/21 09:49:27;;;;;;;174.40;154.38;;;333.10;1587.20;;;;;;5083460;28;20020;-80
2024/01/21 09:51:54;;;;;;;210.43;188.60;;;333.10;1587.20;;;;;;5070772;28;20103;-79
2024/01/21 09:54:21;;;;;;;149.50;133.05;;;333.50;1561.60;;;;;;5080296;28;20021;-77
2024/01/21 09:56:48;;;;;;;139.73;124.43;;;333.20;1561.60;;;;;;5077268;28;20378;-78
2024/01/21 09:59:16;;;;;;;119.85;100.90;;;307.30;1638.40;;;;;;5078753;28;20051;-78
2024/01/21 10:01:42;;;;;;;126.07;103.13;;;282.00;1664.00;;;;;;5088145;28;20059;-75
2024/01/21 10:04:12;;;;;;;119.20;97.72;;;231.00;1740.80;;;;;;5078247;28;20045;-76
2024/01/21 10:06:37;;;;;;;132.82;106.88;;;230.80;1740.80;;;;;;5080222;28;20038;-76
2024/01/21 10:09:36;;;;;;;134.70;97.85;;;230.60;1792.00;;;;;;5078104;28;20028;-77
2024/01/21 10:12:02;;;;;;;146.90;110.80;;;205.40;1792.00;;;;;;5045484;28;20087;-76
2024/01/21 10:14:28;;;;;;;182.43;131.73;;;204.80;1843.20;;;;;;5046063;28;20109;-76
2024/01/21 10:16:55;;;;;;;182.15;123.18;;;154.10;1996.80;;;;;;5046013;28;20131;-75
2024/01/21 10:19:30;;;;;;;151.40;113.50;;;153.70;2048.00;;;;;;5046298;28;20343;-74
2024/01/21 10:22:08;;;;;;;168.65;117.30;;;153.60;2048.00;;;;;;5028155;28;20372;-77
2024/01/21 10:24:37;;;;;;;157.65;109.10;;;153.70;2099.20;;;;;;5045556;28;20375;-77
2024/01/21 10:27:05;;;;;;;151.90;109.57;;;153.70;2099.20;;;;;;5046588;28;20035;-75
2024/01/21 10:29:32;;;;;;;255.23;179.60;;;153.90;2099.20;;;;;;5045385;28;20040;-79
2024/01/21 10:31:58;;;;;;;220.60;154.95;;;153.70;2099.20;;;;;;5045949;28;20071;-76
2024/01/21 10:34:23;;;;;;;255.13;174.48;;;128.30;2150.40;;;;;;5046025;28;20065;-77
2024/01/21 10:36:52;;;;;;;227.63;151.50;;;103.00;2201.60;;;;;;5046141;28;20041;-78
2024/01/21 10:39:20;;;;;;;226.80;147.80;;;102.80;2227.20;;;;;;5045982;28;20021;-75
2024/01/21 10:41:46;;;;;;;242.25;161.85;;;103.20;2201.60;;;;;;5040466;28;20033;-76
2024/01/21 10:44:13;;;;;;;232.00;155.32;;;102.80;2227.20;;;;;;5045252;28;20919;-76
2024/01/21 10:46:42;;;;;;;196.30;134.70;;;102.40;2227.20;;;;;;5048692;28;20477;-77
2024/01/21 10:49:11;;;;;;;183.80;123.25;;;77.50;2227.20;;;;;;5074478;28;20711;-76
2024/01/21 10:51:40;;;;;;;182.68;121.70;;;77.40;2227.20;;;;;;5083337;28;20025;-76
2024/01/21 10:54:07;;;;;;;157.10;99.72;;;102.40;2227.20;;;;;;5080266;28;20028;-76
2024/01/21 10:56:34;;;;;;;146.57;96.53;;;102.40;2227.20;;;;;;5070396;28;20024;-77
2024/01/21 10:59:00;;;;;;;107.55;69.63;;;77.60;2227.20;;;;;;5073262;28;20043;-76
2024/01/21 11:01:27;;;;;;;106.70;67.35;;;102.50;2227.20;;;;;;5079310;28;20036;-76
2024/01/21 11:04:10;;;;;;;127.13;81.38;;;102.80;2227.20;;;;;;5080064;28;20505;-77
2024/01/21 11:06:35;;;;;;;122.30;76.80;;;102.80;2227.20;;;;;;5079317;28;20078;-77
2024/01/21 11:09:03;;;;;;;117.25;77.28;;;102.70;2227.20;;;;;;5072902;28;20028;-75
2024/01/21 11:11:30;;;;;;;126.57;81.88;;;102.70;2227.20;;;;;;5082153;28;20032;-76
2024/01/21 11:14:04;;;;;;;120.00;80.40;;;102.70;2227.20;;;;;;5687919;22;20183;-84
2024/01/21 11:20:05;;;;;;;105.68;71.15;;;102.70;2227.20;;;;;;5036163;23;20136;-75
2024/01/21 11:22:39;;;;;;;108.93;62.78;;;102.50;2227.20;;;;;;4817099;29;20082;-80
2024/01/21 11:25:32;;;;;;;118.97;77.07;;;102.70;2227.20;;;;;;4860169;24;20061;-81
2024/01/21 11:36:01;;;;;;;133.27;82.68;;;102.50;2227.20;;;;;;5157674;24;20152;-77
2024/01/21 11:38:36;;;;;;;125.03;78.63;;;77.70;2227.20;;;;;;4887148;24;20060;-79
2024/01/21 11:41:42;;;;;;;91.30;56.42;;;77.50;2227.20;;;;;;4881688;29;20018;-81
2024/01/21 13:52:14;;;;;;;68.55;41.15;;;102.60;2227.20;;;;;;4811857;24;20051;-80
2024/01/21 13:54:43;;;;;;;72.75;47.92;;;102.50;2201.60;;;;;;4801512;29;20059;-77
2024/01/21 13:57:28;;;;;;;131.77;73.45;;;102.70;2227.20;;;;;;4792352;29;20038;-79
2024/01/21 14:00:12;;;;;;;74.85;45.20;;;102.70;2201.60;;;;;;4860703;24;20123;-80
2024/01/21 14:02:41;;;;;;;81.97;48.92;;;102.70;2201.60;;;;;;4903778;24;20051;-77
2024/01/21 14:05:13;;;;;;;121.47;73.13;;;102.70;2227.20;;;;;;4791938;30;20049;-78
2024/01/21 14:07:44;;;;;;;54.90;34.72;;;102.60;2227.20;;;;;;4802950;29;20038;-78
2024/01/21 14:10:13;;;;;;;70.30;44.65;;;102.60;2227.20;;;;;;4801519;24;20410;-78
2024/01/21 14:12:51;;;;;;;79.55;47.45;;;102.60;2227.20;;;;;;4802066;24;20121;-78
2024/01/21 14:15:48;;;;;;;66.38;42.00;;;102.80;2227.20;;;;;;4793805;29;20141;-79
2024/01/21 14:18:13;;;;;;;78.95;49.65;;;102.80;2201.60;;;;;;4803559;29;20034;-77
2024/01/21 14:20:40;;;;;;;92.20;55.33;;;102.80;2227.20;;;;;;4760260;30;20541;-77